createdAt,value
2022-08-10T00:08:32.627Z,17.09
2022-08-10T00:18:36.402Z,16.89
2022-08-10T00:28:39.656Z,16.70
2022-08-10T00:38:42.643Z,16.50
2022-08-10T00:48:44.981Z,16.29
2022-08-10T00:58:55.785Z,16.12
2022-08-10T01:08:57.853Z,15.90
2022-08-10T01:19:12.739Z,15.76
2022-08-10T01:29:46.938Z,15.59
2022-08-10T01:39:56.558Z,15.38
2022-08-10T01:50:03.598Z,15.27
2022-08-10T02:00:07.407Z,15.08
2022-08-10T02:10:13.166Z,14.93
2022-08-10T02:20:24.313Z,14.80
2022-08-10T02:30:29.494Z,14.66
2022-08-10T02:45:01.161Z,14.51
2022-08-10T02:51:05.666Z,14.37
2022-08-10T03:01:17.729Z,14.18
2022-08-10T03:12:35.733Z,14.05
2022-08-10T03:21:51.729Z,13.90
2022-08-10T03:31:55.733Z,13.75
2022-08-10T03:42:02.080Z,13.67
2022-08-10T03:52:06.830Z,13.55
2022-08-10T04:02:46.907Z,13.41
2022-08-10T04:12:32.150Z,13.31
2022-08-10T04:22:36.993Z,13.25
2022-08-10T04:32:41.651Z,13.13
2022-08-10T04:42:45.235Z,13.12
2022-08-10T04:52:47.505Z,13.09
2022-08-10T05:02:50.485Z,13.19
2022-08-10T05:12:52.907Z,13.41
2022-08-10T05:22:55.486Z,13.66
2022-08-10T05:33:01.707Z,13.94
2022-08-10T05:43:06.753Z,14.37
2022-08-10T05:54:01.257Z,14.88
2022-08-10T06:03:37.001Z,15.38
2022-08-10T06:14:13.440Z,15.95
2022-08-10T06:24:25.592Z,16.51
2022-08-10T06:34:39.380Z,17.02
2022-08-10T06:45:22.615Z,17.54
2022-08-10T06:55:40.128Z,18.15
2022-08-10T07:05:56.667Z,18.69
2022-08-10T07:16:02.593Z,19.06
2022-08-10T07:26:07.727Z,19.59
2022-08-10T07:36:13.949Z,20.08
2022-08-10T07:46:25.673Z,20.75
2022-08-10T07:56:48.493Z,21.42
2022-08-10T08:06:57.174Z,22.00
2022-08-10T08:17:04.546Z,22.66
2022-08-10T08:27:22.684Z,23.16
2022-08-10T08:38:32.361Z,23.72
2022-08-10T08:48:26.016Z,23.99
2022-08-10T08:58:51.752Z,24.39
2022-08-10T09:09:33.891Z,24.78
2022-08-10T09:19:46.279Z,25.29
2022-08-10T09:29:57.985Z,25.79
2022-08-10T09:41:00.608Z,26.26
2022-08-10T09:51:44.214Z,26.64
2022-08-10T10:02:02.611Z,26.83
2022-08-10T10:12:28.680Z,26.99
2022-08-10T10:22:43.686Z,27.41
2022-08-10T10:32:59.667Z,27.78
2022-08-10T10:43:40.113Z,28.04
2022-08-10T10:53:55.289Z,28.68
2022-08-10T11:04:07.307Z,29.34
2022-08-10T11:14:39.716Z,29.70
2022-08-10T11:25:16.757Z,29.86
2022-08-10T11:35:35.189Z,30.31
2022-08-10T11:45:52.154Z,30.78
2022-08-10T11:56:13.561Z,31.11
2022-08-10T12:06:53.669Z,31.40
2022-08-10T12:17:18.681Z,31.64
2022-08-10T12:27:42.937Z,31.70
2022-08-10T12:38:12.463Z,32.30
2022-08-10T12:48:58.568Z,32.41
2022-08-10T12:59:14.943Z,32.58
2022-08-10T13:09:27.984Z,33.03
2022-08-10T13:19:53.418Z,33.61
2022-08-10T13:30:10.335Z,33.93
2022-08-10T13:40:23.981Z,33.86
2022-08-10T13:50:35.289Z,34.39
2022-08-10T14:00:46.296Z,34.59
2022-08-10T14:11:08.907Z,34.59
2022-08-10T14:21:18.019Z,34.91
2022-08-10T14:31:26.910Z,34.99
2022-08-10T14:42:03.318Z,34.69
2022-08-10T14:52:05.751Z,35.30
2022-08-10T15:02:40.937Z,34.94
2022-08-10T15:12:41.735Z,33.91
2022-08-10T15:23:33.028Z,32.49
2022-08-10T15:34:05.366Z,31.45
2022-08-10T15:44:10.625Z,30.76
2022-08-10T15:54:17.526Z,30.50
2022-08-10T16:04:49.368Z,30.11
2022-08-10T16:14:54.923Z,29.64
2022-08-10T16:25:00.914Z,29.41
2022-08-10T16:35:08.930Z,29.14
2022-08-10T16:45:25.497Z,29.04
2022-08-10T16:55:49.936Z,28.68
2022-08-10T17:06:03.350Z,28.67
2022-08-10T17:16:21.111Z,28.20
2022-08-10T17:26:37.506Z,27.86
2022-08-10T17:36:43.303Z,27.61
2022-08-10T17:46:47.814Z,27.35
2022-08-10T17:56:57.174Z,27.15
2022-08-10T18:07:02.241Z,26.85
2022-08-10T18:17:11.851Z,26.60
2022-08-10T18:27:15.560Z,26.35
2022-08-10T18:37:23.287Z,25.68
2022-08-10T18:47:34.842Z,25.36
2022-08-10T18:58:02.230Z,25.03
2022-08-10T19:08:49.683Z,24.64
2022-08-10T19:19:22.476Z,24.19
2022-08-10T19:30:11.936Z,23.69
2022-08-10T19:40:43.514Z,23.12
2022-08-10T19:51:18.967Z,22.51
2022-08-10T20:01:21.389Z,21.97
2022-08-10T20:11:42.535Z,21.57
2022-08-10T20:22:00.349Z,21.23
2022-08-10T20:32:21.217Z,20.93
2022-08-10T20:42:35.553Z,20.75
2022-08-10T20:52:39.633Z,20.64
2022-08-10T21:03:20.697Z,20.42
2022-08-10T21:13:35.668Z,20.24
2022-08-10T21:23:46.926Z,19.96
2022-08-10T21:34:01.373Z,19.73
2022-08-10T21:44:43.368Z,19.51
2022-08-10T21:55:25.573Z,19.26
2022-08-10T22:06:13.116Z,19.03
2022-08-10T22:16:48.506Z,18.80
2022-08-10T22:27:47.322Z,18.60
2022-08-10T22:38:39.070Z,18.40
2022-08-10T22:49:00.466Z,18.20
2022-08-10T22:59:03.281Z,17.99
2022-08-10T23:09:08.979Z,17.81
2022-08-10T23:19:41.997Z,17.64
2022-08-10T23:30:09.397Z,17.43
2022-08-10T23:40:16.010Z,17.26
2022-08-10T23:50:19.884Z,17.05
